METAR AND TAF INFORMATION
METAR FOR TUPJ
ADDS - METARS form results

(0502 UTC 22 June 2018)
Data provider http://aviationweather.gov/adds/metars/
 
Forecast for: TUPJ (BEEF ISL/ROADTOW, VI)
Text: TAF TUPJ 212300Z 2200/2224 12010KT 9999 SCT018
Forecast period: 0000 UTC 22 June 2018 to 0000 UTC 23 June 2018
Forecast type: FROM: standard forecast or significant change
Winds: from the ESE (120 degrees) at 12 MPH (10 knots; 5.2 m/s)
Visibility: 6 or more miles (10+ km)
Clouds: scattered clouds at 1800 feet AGL
Weather: no significant weather forecast for this period
Text: PROB40
Forecast period: 1600 UTC 22 June 2018 to 0000 UTC 23 June 2018
Forecast type: TEMPORARY: The following changes expected for less than half the time period
Weather: SHRA  (rain showers)

 AIRPORT MAP

 RUNWAY INFORMATION
Runway 07 Runway length 4642 ft Runway width 89 ft
Runway elevation 14 ft Runway displaced threshold 489 ft Runway heading 61
Runway 25 Runway length 4642 ft Runway width 89 ft
Runway elevation 7 ft Runway displaced threshold 195 ft Runway heading 241

 AIRPORT FREQUENCIES
Type GND Name GND Frequency 121.9 MHZ
Type TWR Name BEEF ISLAN Frequency 118.4 MHZ

 AIRPORT NEAR NAVIGATION AIDS
Type NDB Name Beef Island Frequency 360 KHZ



Powered by Heron Airways VA. All Rights Reserved © 2009 [v2.6.2]